Time;durP1;ratioP1;P1;durP2;ratioP2;P2;SDS_P1;SDS_P2;PMS_P1;PMS_P2;Temp;Humidity;BMP_temperature;BMP_pressure;BME280_temperature;BME280_humidity;BME280_pressure;Samples;Min_cycle;Max_cycle;Signal;HPM_P1;HPM_P2
2023/03/30 00:01:22;;;;;;;39.13;30.63;;;;;;;;;;5061064;28;20431;-80
2023/03/30 00:03:49;;;;;;;41.95;30.40;;;;;;;;;;5063661;28;20527;-80
2023/03/30 00:06:20;;;;;;;41.47;29.73;;;;;;;;;;5066248;28;20414;-80
2023/03/30 00:08:47;;;;;;;41.20;30.30;;;;;;;;;;5064693;28;20457;-80
2023/03/30 00:11:14;;;;;;;39.05;29.70;;;;;;;;;;5064371;28;20407;-80
2023/03/30 00:13:41;;;;;;;39.60;30.23;;;;;;;;;;5065782;28;20418;-80
2023/03/30 00:16:08;;;;;;;40.75;29.80;;;;;;;;;;5059534;28;20416;-80
2023/03/30 00:18:38;;;;;;;38.65;28.58;;;;;;;;;;5062460;28;20431;-80
2023/03/30 00:21:05;;;;;;;37.30;28.08;;;;;;;;;;5060283;28;20423;-79
2023/03/30 00:23:32;;;;;;;38.40;28.75;;;;;;;;;;5063220;28;20436;-79
2023/03/30 00:25:59;;;;;;;38.13;28.35;;;;;;;;;;5064940;28;20642;-80
2023/03/30 00:28:29;;;;;;;34.97;28.25;;;;;;;;;;5062363;28;20504;-80
2023/03/30 00:30:55;;;;;;;39.15;28.38;;;;;;;;;;5064484;28;20405;-80
2023/03/30 00:33:22;;;;;;;41.55;28.55;;;;;;;;;;5063436;28;20441;-80
2023/03/30 00:35:53;;;;;;;40.80;29.45;;;;;;;;;;5065550;28;20458;-80
2023/03/30 00:38:20;;;;;;;38.17;27.80;;;;;;;;;;5063699;28;20427;-80
2023/03/30 00:40:51;;;;;;;38.90;28.40;;;;;;;;;;5065444;28;20433;-80
2023/03/30 00:43:17;;;;;;;38.35;28.48;;;;;;;;;;5063565;28;20427;-80
2023/03/30 00:45:44;;;;;;;41.85;28.55;;;;;;;;;;5061294;28;20426;-80
2023/03/30 00:48:14;;;;;;;37.00;26.97;;;;;;;;;;5067486;28;20427;-80
2023/03/30 00:50:42;;;;;;;35.33;27.88;;;;;;;;;;5066577;28;20453;-80
2023/03/30 00:53:15;;;;;;;42.17;29.67;;;;;;;;;;5065287;28;20429;-79
2023/03/30 00:55:42;;;;;;;40.35;29.58;;;;;;;;;;5065164;28;20834;-80
2023/03/30 00:58:09;;;;;;;41.35;28.40;;;;;;;;;;5061951;28;20444;-79
2023/03/30 01:00:38;;;;;;;36.90;26.92;;;;;;;;;;5063205;28;20419;-79
2023/03/30 01:03:06;;;;;;;36.90;28.17;;;;;;;;;;5061353;28;20419;-80
2023/03/30 01:05:33;;;;;;;37.93;27.73;;;;;;;;;;5062310;28;20420;-80
2023/03/30 01:08:00;;;;;;;37.23;28.13;;;;;;;;;;5060731;28;20440;-80
2023/03/30 01:10:28;;;;;;;37.95;27.17;;;;;;;;;;5063435;28;20405;-80
2023/03/30 01:12:54;;;;;;;37.08;27.00;;;;;;;;;;5046830;28;20405;-79
2023/03/30 01:15:22;;;;;;;37.55;27.38;;;;;;;;;;5043180;28;20425;-80
2023/03/30 01:17:58;;;;;;;35.58;27.45;;;;;;;;;;5062319;28;20518;-80
2023/03/30 01:20:52;;;;;;;36.20;26.40;;;;;;;;;;5061944;28;20441;-79
2023/03/30 01:23:34;;;;;;;36.53;26.88;;;;;;;;;;5063477;28;20921;-80
2023/03/30 01:26:12;;;;;;;36.42;25.95;;;;;;;;;;5063777;28;20443;-80
2023/03/30 01:28:43;;;;;;;32.92;25.58;;;;;;;;;;5062961;28;20423;-80
2023/03/30 01:31:26;;;;;;;31.67;25.10;;;;;;;;;;5058812;28;20419;-80
2023/03/30 01:34:16;;;;;;;33.23;24.90;;;;;;;;;;5058861;28;20435;-80
2023/03/30 01:36:52;;;;;;;34.45;23.90;;;;;;;;;;5007080;28;20434;-79
2023/03/30 01:39:26;;;;;;;30.80;24.93;;;;;;;;;;5042136;28;20426;-80
2023/03/30 01:41:56;;;;;;;32.60;23.58;;;;;;;;;;5043250;28;20473;-80
2023/03/30 01:44:26;;;;;;;30.60;23.60;;;;;;;;;;5037276;28;20426;-80
2023/03/30 01:46:56;;;;;;;28.50;23.00;;;;;;;;;;5038660;28;20474;-80
2023/03/30 01:49:27;;;;;;;29.63;22.73;;;;;;;;;;5042315;28;20449;-80
2023/03/30 01:51:57;;;;;;;28.70;22.80;;;;;;;;;;5040223;28;20426;-80
2023/03/30 01:54:27;;;;;;;29.40;23.80;;;;;;;;;;5040741;28;20429;-80
2023/03/30 01:56:55;;;;;;;30.25;22.23;;;;;;;;;;5041741;28;20433;-80
2023/03/30 01:59:24;;;;;;;30.13;21.98;;;;;;;;;;5041631;28;20436;-80
2023/03/30 02:01:52;;;;;;;28.70;21.70;;;;;;;;;;5039455;28;20462;-80
2023/03/30 02:04:21;;;;;;;27.20;21.60;;;;;;;;;;5043247;28;20511;-80
2023/03/30 02:06:50;;;;;;;28.27;21.55;;;;;;;;;;5039086;28;20804;-79
2023/03/30 02:09:18;;;;;;;27.90;21.88;;;;;;;;;;5044354;28;20418;-80
2023/03/30 02:11:48;;;;;;;26.07;20.40;;;;;;;;;;5039022;28;20466;-80
2023/03/30 02:14:15;;;;;;;27.13;20.50;;;;;;;;;;5041849;28;20437;-79
2023/03/30 02:16:44;;;;;;;25.80;20.02;;;;;;;;;;5045651;28;20415;-81
2023/03/30 02:19:11;;;;;;;26.35;20.60;;;;;;;;;;5054691;28;20433;-81
2023/03/30 02:21:37;;;;;;;29.27;21.23;;;;;;;;;;5056694;28;20421;-81
2023/03/30 02:24:05;;;;;;;27.10;20.58;;;;;;;;;;5061338;28;20437;-81
2023/03/30 02:26:32;;;;;;;28.35;21.88;;;;;;;;;;5059543;28;20425;-81
2023/03/30 02:29:00;;;;;;;27.77;20.60;;;;;;;;;;5057811;28;20428;-80
2023/03/30 02:31:27;;;;;;;24.38;19.50;;;;;;;;;;5051589;28;20421;-80
2023/03/30 02:34:01;;;;;;;25.98;19.70;;;;;;;;;;5044353;28;20419;-79
2023/03/30 02:36:38;;;;;;;24.38;18.60;;;;;;;;;;5045546;28;20423;-80
2023/03/30 02:39:09;;;;;;;24.33;19.27;;;;;;;;;;5043917;28;20425;-79
2023/03/30 02:41:54;;;;;;;26.73;18.95;;;;;;;;;;5048037;28;20431;-79
2023/03/30 02:44:27;;;;;;;26.20;18.10;;;;;;;;;;5044933;28;20991;-78
2023/03/30 02:46:59;;;;;;;25.17;18.88;;;;;;;;;;5044158;28;20419;-79
2023/03/30 02:49:33;;;;;;;27.23;18.52;;;;;;;;;;5041716;28;20429;-79
2023/03/30 02:52:05;;;;;;;24.15;18.00;;;;;;;;;;5047244;28;21012;-79
2023/03/30 02:54:36;;;;;;;25.52;18.52;;;;;;;;;;5045641;28;20429;-79
2023/03/30 02:57:06;;;;;;;23.80;18.80;;;;;;;;;;5043898;28;20425;-79
2023/03/30 02:59:37;;;;;;;24.85;17.77;;;;;;;;;;5041725;28;20429;-79
2023/03/30 03:02:05;;;;;;;22.58;17.80;;;;;;;;;;5046078;28;20432;-78
2023/03/30 03:04:33;;;;;;;22.23;18.43;;;;;;;;;;5043996;28;20425;-78
2023/03/30 03:07:01;;;;;;;27.42;19.02;;;;;;;;;;5044323;28;20425;-79
2023/03/30 03:09:28;;;;;;;22.77;17.70;;;;;;;;;;5046500;28;20445;-78
2023/03/30 03:11:54;;;;;;;22.50;17.75;;;;;;;;;;5045812;28;20423;-79
2023/03/30 03:14:21;;;;;;;22.25;17.20;;;;;;;;;;5043305;28;20420;-79
2023/03/30 03:16:48;;;;;;;23.77;17.67;;;;;;;;;;5048029;28;20829;-79
2023/03/30 03:19:16;;;;;;;23.15;17.83;;;;;;;;;;5045487;28;20438;-79
2023/03/30 03:21:42;;;;;;;21.95;17.42;;;;;;;;;;5047860;28;20563;-79
2023/03/30 03:24:12;;;;;;;20.90;17.30;;;;;;;;;;5047350;28;20799;-78
2023/03/30 03:26:38;;;;;;;22.30;17.42;;;;;;;;;;5046322;28;20421;-79
2023/03/30 03:29:05;;;;;;;23.50;17.55;;;;;;;;;;5048290;28;20426;-79
2023/03/30 03:31:31;;;;;;;21.77;17.10;;;;;;;;;;5046090;28;20474;-79
2023/03/30 03:33:59;;;;;;;21.23;17.35;;;;;;;;;;5045014;28;20419;-79
2023/03/30 03:36:25;;;;;;;23.60;17.20;;;;;;;;;;5050793;28;20429;-78
2023/03/30 03:38:52;;;;;;;22.13;16.70;;;;;;;;;;5045541;28;20531;-78
2023/03/30 03:41:18;;;;;;;22.25;16.67;;;;;;;;;;5044354;28;20936;-79
2023/03/30 03:43:44;;;;;;;22.13;16.30;;;;;;;;;;5047704;28;20440;-79
2023/03/30 03:46:11;;;;;;;23.65;17.70;;;;;;;;;;5047908;28;20422;-79
2023/03/30 03:48:38;;;;;;;22.48;18.25;;;;;;;;;;5044949;28;20943;-79
2023/03/30 03:51:06;;;;;;;19.83;16.77;;;;;;;;;;5044386;28;20430;-79
2023/03/30 03:53:34;;;;;;;21.80;16.53;;;;;;;;;;5044705;28;20460;-79
2023/03/30 03:56:00;;;;;;;22.15;15.93;;;;;;;;;;5047309;28;20409;-79
2023/03/30 03:58:28;;;;;;;18.83;15.57;;;;;;;;;;5048473;28;20835;-79
2023/03/30 04:00:57;;;;;;;21.45;15.50;;;;;;;;;;5043468;28;20411;-79
2023/03/30 04:03:24;;;;;;;21.60;16.35;;;;;;;;;;5043426;28;20425;-78
2023/03/30 04:05:51;;;;;;;20.05;15.38;;;;;;;;;;5045143;28;20450;-79
2023/03/30 04:08:18;;;;;;;22.08;15.88;;;;;;;;;;5046498;28;20425;-78
2023/03/30 04:10:45;;;;;;;21.45;15.90;;;;;;;;;;5045080;28;20425;-79
2023/03/30 04:13:11;;;;;;;21.52;16.23;;;;;;;;;;5047609;28;20425;-79
2023/03/30 04:15:37;;;;;;;18.88;14.98;;;;;;;;;;5047158;28;20431;-79
2023/03/30 04:18:04;;;;;;;22.08;15.63;;;;;;;;;;5048410;28;20432;-79
2023/03/30 04:20:30;;;;;;;21.40;15.90;;;;;;;;;;5046006;28;20425;-79
2023/03/30 04:23:00;;;;;;;20.47;15.40;;;;;;;;;;5047131;28;20436;-79
2023/03/30 04:25:28;;;;;;;19.00;14.60;;;;;;;;;;5047767;28;20465;-79
2023/03/30 04:27:55;;;;;;;20.10;14.90;;;;;;;;;;5069482;28;20419;-79
2023/03/30 04:30:22;;;;;;;18.77;14.10;;;;;;;;;;5069205;28;20437;-79
2023/03/30 04:33:01;;;;;;;19.10;14.00;;;;;;;;;;5064494;28;20777;-79
2023/03/30 04:35:27;;;;;;;17.53;13.30;;;;;;;;;;5069537;28;20423;-79
2023/03/30 04:37:54;;;;;;;16.42;13.10;;;;;;;;;;5064328;28;20429;-82
2023/03/30 04:40:20;;;;;;;15.65;12.27;;;;;;;;;;5061947;28;20437;-80
2023/03/30 04:42:48;;;;;;;14.30;10.00;;;;;;;;;;5067389;28;20415;-79
2023/03/30 04:45:16;;;;;;;14.05;10.68;;;;;;;;;;5066054;28;20429;-79
2023/03/30 04:47:42;;;;;;;13.23;9.65;;;;;;;;;;5064780;28;20433;-80
2023/03/30 04:50:09;;;;;;;10.77;8.98;;;;;;;;;;5066577;28;20426;-81
2023/03/30 04:52:36;;;;;;;11.80;9.23;;;;;;;;;;5064790;28;20510;-80
2023/03/30 04:55:02;;;;;;;10.15;8.43;;;;;;;;;;5071351;28;20417;-79
2023/03/30 04:57:30;;;;;;;11.93;8.80;;;;;;;;;;5065891;28;20433;-79
2023/03/30 04:59:57;;;;;;;12.10;8.38;;;;;;;;;;5068803;28;20809;-79
2023/03/30 05:02:24;;;;;;;13.15;8.20;;;;;;;;;;5065192;28;20418;-81
2023/03/30 05:04:50;;;;;;;13.48;8.45;;;;;;;;;;5068045;28;20946;-81
2023/03/30 05:07:16;;;;;;;11.65;7.72;;;;;;;;;;5066416;28;20854;-81
2023/03/30 05:09:43;;;;;;;14.13;7.50;;;;;;;;;;5067324;28;20429;-81
2023/03/30 05:12:09;;;;;;;10.70;7.10;;;;;;;;;;5069569;28;20421;-81
2023/03/30 05:14:36;;;;;;;12.27;7.38;;;;;;;;;;5066633;28;20471;-81
2023/03/30 05:17:04;;;;;;;10.50;7.20;;;;;;;;;;5065714;28;20423;-81
2023/03/30 05:19:30;;;;;;;12.63;7.55;;;;;;;;;;5068196;28;20427;-81
2023/03/30 05:21:56;;;;;;;10.63;6.35;;;;;;;;;;5061165;28;20419;-81
2023/03/30 05:24:23;;;;;;;8.20;6.00;;;;;;;;;;5066219;28;20420;-81
2023/03/30 05:26:49;;;;;;;9.68;6.95;;;;;;;;;;5069819;28;20428;-81
2023/03/30 05:29:16;;;;;;;10.45;6.05;;;;;;;;;;5068471;28;20417;-81
2023/03/30 05:31:42;;;;;;;9.03;6.40;;;;;;;;;;5065519;28;20498;-81
2023/03/30 05:34:10;;;;;;;10.68;8.00;;;;;;;;;;5069357;28;20921;-82
2023/03/30 05:36:36;;;;;;;13.00;6.60;;;;;;;;;;5065040;28;20416;-81
2023/03/30 05:39:03;;;;;;;9.40;6.20;;;;;;;;;;5067664;28;20782;-81
2023/03/30 05:41:30;;;;;;;9.15;6.30;;;;;;;;;;5069170;28;20435;-82
2023/03/30 05:43:57;;;;;;;9.53;6.30;;;;;;;;;;5073548;28;20482;-81
2023/03/30 05:46:23;;;;;;;7.10;5.70;;;;;;;;;;5070308;28;20415;-81
2023/03/30 05:48:51;;;;;;;9.45;6.97;;;;;;;;;;5070499;28;20435;-81
2023/03/30 05:51:19;;;;;;;8.15;6.72;;;;;;;;;;5066998;28;20432;-81
2023/03/30 05:53:46;;;;;;;9.85;6.20;;;;;;;;;;5063490;28;20432;-79
2023/03/30 05:56:12;;;;;;;7.32;5.65;;;;;;;;;;5066776;28;20824;-81
2023/03/30 05:58:39;;;;;;;11.82;6.10;;;;;;;;;;5066758;28;20930;-81
2023/03/30 06:01:08;;;;;;;8.57;5.30;;;;;;;;;;5067366;28;20423;-80
2023/03/30 06:03:34;;;;;;;8.73;6.30;;;;;;;;;;5068556;28;20423;-81
2023/03/30 06:06:01;;;;;;;12.27;6.03;;;;;;;;;;5066448;28;20408;-81
2023/03/30 06:08:29;;;;;;;10.40;6.50;;;;;;;;;;5065689;28;20420;-81
2023/03/30 06:10:56;;;;;;;12.95;7.10;;;;;;;;;;5069478;28;20539;-81
2023/03/30 06:13:22;;;;;;;10.50;5.90;;;;;;;;;;5065883;28;20455;-81
2023/03/30 06:15:48;;;;;;;9.40;5.90;;;;;;;;;;5065841;28;20411;-81
2023/03/30 06:18:15;;;;;;;9.52;5.50;;;;;;;;;;5064568;28;20417;-80
2023/03/30 06:20:42;;;;;;;7.97;5.80;;;;;;;;;;5065296;28;20425;-80
2023/03/30 06:23:08;;;;;;;9.70;5.30;;;;;;;;;;5068110;28;20489;-80
2023/03/30 06:25:37;;;;;;;8.10;5.43;;;;;;;;;;5069069;28;20427;-81
2023/03/30 06:28:03;;;;;;;8.35;5.38;;;;;;;;;;5063921;28;20405;-80
2023/03/30 06:30:31;;;;;;;9.70;5.82;;;;;;;;;;5063926;28;20409;-81
2023/03/30 06:32:57;;;;;;;8.98;5.32;;;;;;;;;;5067701;28;20455;-81
2023/03/30 06:35:24;;;;;;;9.25;5.50;;;;;;;;;;5065913;28;20485;-81
2023/03/30 06:37:50;;;;;;;9.00;5.30;;;;;;;;;;5067100;28;20409;-80
2023/03/30 06:40:17;;;;;;;7.78;4.15;;;;;;;;;;5064285;28;20919;-80
2023/03/30 06:42:45;;;;;;;8.68;5.18;;;;;;;;;;5067533;28;20420;-80
2023/03/30 06:45:12;;;;;;;7.40;4.50;;;;;;;;;;5066854;28;20421;-80
2023/03/30 06:47:40;;;;;;;9.43;5.35;;;;;;;;;;5063819;28;20424;-80
2023/03/30 06:50:07;;;;;;;7.22;4.68;;;;;;;;;;5064771;28;20968;-80
2023/03/30 06:52:34;;;;;;;8.68;4.93;;;;;;;;;;5065203;28;20417;-80
2023/03/30 06:55:04;;;;;;;8.55;5.35;;;;;;;;;;5064053;28;20418;-80
2023/03/30 06:57:31;;;;;;;8.27;5.00;;;;;;;;;;5068041;28;20407;-80
2023/03/30 07:00:00;;;;;;;6.70;4.57;;;;;;;;;;5064175;28;20432;-80
2023/03/30 07:02:27;;;;;;;9.23;4.93;;;;;;;;;;5058218;28;20421;-80
2023/03/30 07:04:53;;;;;;;8.70;4.55;;;;;;;;;;5065060;28;20450;-80
2023/03/30 07:07:19;;;;;;;7.47;4.57;;;;;;;;;;5066098;28;20409;-80
2023/03/30 07:09:46;;;;;;;7.68;4.30;;;;;;;;;;5064901;28;20421;-80
2023/03/30 07:12:12;;;;;;;6.93;4.50;;;;;;;;;;5064307;28;20428;-80
2023/03/30 07:14:38;;;;;;;9.02;4.30;;;;;;;;;;5063130;28;20429;-80
2023/03/30 07:17:08;;;;;;;7.35;4.60;;;;;;;;;;5068485;28;20414;-80
2023/03/30 07:19:35;;;;;;;7.55;4.88;;;;;;;;;;5065207;28;20931;-80
2023/03/30 07:22:01;;;;;;;10.30;4.97;;;;;;;;;;5062155;28;20430;-80
2023/03/30 07:24:28;;;;;;;9.75;4.40;;;;;;;;;;5066809;28;20431;-80
2023/03/30 07:26:55;;;;;;;8.95;4.68;;;;;;;;;;5063256;28;20953;-82
2023/03/30 07:29:21;;;;;;;8.82;4.68;;;;;;;;;;5064269;28;20477;-79
2023/03/30 07:31:47;;;;;;;7.32;4.30;;;;;;;;;;5068579;28;20411;-81
2023/03/30 07:34:15;;;;;;;7.53;4.60;;;;;;;;;;5067869;28;20413;-79
2023/03/30 07:36:42;;;;;;;7.07;4.68;;;;;;;;;;5062592;28;20411;-80
2023/03/30 07:39:08;;;;;;;9.55;4.32;;;;;;;;;;5066601;28;20922;-80
2023/03/30 07:41:34;;;;;;;9.05;5.00;;;;;;;;;;5064822;28;20425;-80
2023/03/30 07:44:01;;;;;;;7.93;4.90;;;;;;;;;;5067969;28;20413;-79
2023/03/30 07:46:27;;;;;;;7.53;5.13;;;;;;;;;;5064312;28;20409;-80
2023/03/30 07:48:53;;;;;;;7.95;4.88;;;;;;;;;;5068628;28;20415;-80
2023/03/30 07:51:21;;;;;;;7.07;4.57;;;;;;;;;;5069426;28;20831;-79
2023/03/30 07:53:48;;;;;;;5.75;4.28;;;;;;;;;;5067559;28;20428;-79
2023/03/30 07:56:14;;;;;;;8.70;4.40;;;;;;;;;;5064263;28;20411;-80
2023/03/30 07:58:42;;;;;;;8.88;4.80;;;;;;;;;;5065836;28;20412;-81
2023/03/30 08:01:08;;;;;;;10.70;4.28;;;;;;;;;;5061797;28;20479;-80
2023/03/30 08:03:35;;;;;;;8.82;4.18;;;;;;;;;;5064714;28;20429;-81
2023/03/30 08:06:04;;;;;;;8.18;4.30;;;;;;;;;;5068578;28;20852;-80
2023/03/30 08:08:32;;;;;;;7.38;3.60;;;;;;;;;;5062482;28;20560;-80
2023/03/30 08:10:58;;;;;;;7.65;4.20;;;;;;;;;;5063621;28;20777;-81
2023/03/30 08:13:25;;;;;;;7.80;3.60;;;;;;;;;;5062311;28;20415;-80
2023/03/30 08:15:53;;;;;;;5.60;3.40;;;;;;;;;;5064913;28;20460;-81
2023/03/30 08:18:19;;;;;;;9.75;3.83;;;;;;;;;;5064892;28;20417;-80
2023/03/30 08:20:50;;;;;;;7.03;3.30;;;;;;;;;;5065012;28;20446;-80
2023/03/30 08:23:16;;;;;;;6.82;3.88;;;;;;;;;;5063044;28;20439;-81
2023/03/30 08:25:46;;;;;;;8.83;3.90;;;;;;;;;;5065300;28;20424;-80
2023/03/30 08:28:13;;;;;;;9.20;3.80;;;;;;;;;;5065272;28;20417;-81
2023/03/30 08:30:39;;;;;;;4.70;3.55;;;;;;;;;;5055280;28;20883;-80
2023/03/30 08:33:07;;;;;;;9.45;3.75;;;;;;;;;;5063760;28;20435;-80
2023/03/30 08:35:34;;;;;;;8.73;4.47;;;;;;;;;;5063402;28;20427;-81
2023/03/30 08:38:00;;;;;;;7.70;4.10;;;;;;;;;;5062641;28;20427;-81
2023/03/30 08:40:27;;;;;;;6.38;3.90;;;;;;;;;;5066124;28;20432;-81
2023/03/30 08:43:17;;;;;;;6.50;3.90;;;;;;;;;;5045397;28;20405;-81
2023/03/30 08:45:45;;;;;;;7.17;4.10;;;;;;;;;;5026056;28;20433;-81
2023/03/30 08:48:16;;;;;;;8.75;4.00;;;;;;;;;;5042265;28;20427;-80
2023/03/30 08:50:46;;;;;;;8.07;4.10;;;;;;;;;;5041366;28;20892;-81
2023/03/30 08:53:13;;;;;;;5.57;3.40;;;;;;;;;;5042463;28;20426;-81
2023/03/30 08:55:41;;;;;;;8.65;3.67;;;;;;;;;;5037875;28;20450;-81
2023/03/30 08:58:12;;;;;;;7.88;3.35;;;;;;;;;;5042530;28;20797;-80
2023/03/30 09:00:43;;;;;;;7.47;3.40;;;;;;;;;;5042456;28;20431;-81
2023/03/30 09:03:14;;;;;;;8.02;3.90;;;;;;;;;;5041303;28;20436;-80
2023/03/30 09:05:43;;;;;;;5.93;3.30;;;;;;;;;;5043175;28;20498;-81
2023/03/30 09:08:13;;;;;;;5.43;3.03;;;;;;;;;;5040944;28;20907;-80
2023/03/30 09:10:42;;;;;;;8.57;3.35;;;;;;;;;;5042760;28;20409;-80
2023/03/30 09:13:12;;;;;;;6.45;3.20;;;;;;;;;;5043621;28;20917;-80
2023/03/30 09:15:42;;;;;;;5.30;3.00;;;;;;;;;;5039447;28;20935;-81
2023/03/30 09:18:12;;;;;;;6.40;3.25;;;;;;;;;;5041511;28;20429;-81
2023/03/30 09:20:40;;;;;;;6.60;2.90;;;;;;;;;;5042163;28;20436;-80
2023/03/30 09:23:11;;;;;;;5.65;3.00;;;;;;;;;;5043228;28;20431;-81
2023/03/30 09:25:41;;;;;;;6.60;3.20;;;;;;;;;;5043987;28;20435;-80
2023/03/30 09:28:12;;;;;;;6.85;3.42;;;;;;;;;;5040219;28;20419;-80
2023/03/30 09:30:39;;;;;;;7.13;3.50;;;;;;;;;;5042237;28;20411;-80
2023/03/30 09:33:10;;;;;;;11.30;3.67;;;;;;;;;;5038892;28;20425;-81
2023/03/30 09:35:38;;;;;;;7.10;3.00;;;;;;;;;;5043615;28;20405;-81
2023/03/30 09:38:09;;;;;;;7.95;3.70;;;;;;;;;;5038387;28;20905;-80
2023/03/30 09:40:40;;;;;;;7.03;3.30;;;;;;;;;;5041877;28;20497;-80
2023/03/30 09:43:10;;;;;;;12.20;3.10;;;;;;;;;;5040043;28;20520;-81
2023/03/30 09:45:37;;;;;;;6.88;3.05;;;;;;;;;;5035782;28;20427;-81
2023/03/30 09:48:06;;;;;;;6.75;2.92;;;;;;;;;;5042286;28;20419;-80
2023/03/30 09:50:37;;;;;;;8.60;2.80;;;;;;;;;;5040940;28;20450;-81
2023/03/30 09:53:05;;;;;;;11.20;2.90;;;;;;;;;;5045926;28;20902;-81
2023/03/30 09:55:34;;;;;;;6.25;3.30;;;;;;;;;;5043682;28;20441;-81
2023/03/30 09:58:12;;;;;;;8.05;3.47;;;;;;;;;;5041681;28;20417;-81
2023/03/30 10:00:39;;;;;;;9.07;3.85;;;;;;;;;;5043945;28;20450;-81
2023/03/30 10:03:07;;;;;;;10.52;3.35;;;;;;;;;;5039152;28;20421;-81
2023/03/30 10:05:35;;;;;;;7.90;3.00;;;;;;;;;;5040173;28;20488;-81
2023/03/30 10:08:03;;;;;;;7.18;2.70;;;;;;;;;;5023235;28;20427;-80
2023/03/30 10:10:33;;;;;;;8.60;2.40;;;;;;;;;;5039109;28;20459;-81
2023/03/30 10:13:06;;;;;;;7.55;2.60;;;;;;;;;;5041725;28;20910;-81
2023/03/30 10:15:34;;;;;;;8.23;3.20;;;;;;;;;;5040174;28;20421;-80
2023/03/30 10:18:01;;;;;;;8.27;2.50;;;;;;;;;;5036135;28;20413;-81
2023/03/30 10:20:34;;;;;;;10.30;3.17;;;;;;;;;;5041719;28;20440;-81
2023/03/30 10:23:03;;;;;;;8.00;2.90;;;;;;;;;;5040843;28;20891;-80
2023/03/30 10:25:30;;;;;;;11.80;3.00;;;;;;;;;;5040804;28;20824;-81
2023/03/30 10:28:00;;;;;;;9.77;3.03;;;;;;;;;;5040601;28;21051;-80
2023/03/30 10:30:28;;;;;;;7.95;2.85;;;;;;;;;;5040355;28;20422;-81
2023/03/30 10:32:56;;;;;;;6.88;3.00;;;;;;;;;;5045528;28;20407;-81
2023/03/30 10:35:24;;;;;;;7.05;3.22;;;;;;;;;;5041838;28;20781;-81
2023/03/30 10:37:52;;;;;;;8.85;3.28;;;;;;;;;;5040162;28;20427;-81
2023/03/30 10:40:20;;;;;;;9.27;2.90;;;;;;;;;;5046405;28;20436;-81
2023/03/30 10:42:47;;;;;;;7.32;3.25;;;;;;;;;;5041291;28;20423;-80
2023/03/30 10:45:16;;;;;;;6.95;3.05;;;;;;;;;;5042374;28;20431;-80
2023/03/30 10:47:53;;;;;;;10.57;3.00;;;;;;;;;;5046091;28;20474;-81
2023/03/30 10:50:25;;;;;;;7.45;2.97;;;;;;;;;;5028883;28;20410;-80
2023/03/30 10:52:55;;;;;;;6.50;2.30;;;;;;;;;;5043995;28;20440;-80
2023/03/30 10:55:25;;;;;;;8.13;2.80;;;;;;;;;;5040149;28;20428;-80
2023/03/30 10:57:54;;;;;;;6.30;2.90;;;;;;;;;;5045638;28;20417;-80
2023/03/30 11:00:25;;;;;;;8.93;3.10;;;;;;;;;;5046261;28;20425;-80
2023/03/30 11:02:58;;;;;;;7.45;3.60;;;;;;;;;;5045987;28;20876;-80
2023/03/30 11:05:28;;;;;;;10.23;3.80;;;;;;;;;;5043867;28;20411;-80
2023/03/30 11:07:55;;;;;;;13.68;4.50;;;;;;;;;;5045216;28;20455;-80
2023/03/30 11:10:28;;;;;;;10.67;4.13;;;;;;;;;;5047480;28;20479;-81
2023/03/30 11:12:56;;;;;;;14.43;3.92;;;;;;;;;;5045688;28;20898;-80
2023/03/30 11:15:25;;;;;;;13.30;3.70;;;;;;;;;;5043108;28;20435;-80
2023/03/30 11:17:57;;;;;;;13.47;3.50;;;;;;;;;;5043936;28;20429;-80
2023/03/30 11:20:26;;;;;;;12.73;3.97;;;;;;;;;;5043706;28;20441;-81
2023/03/30 11:22:55;;;;;;;13.27;3.95;;;;;;;;;;5045157;28;20860;-80
2023/03/30 11:25:23;;;;;;;16.80;3.50;;;;;;;;;;5044181;28;20415;-81
2023/03/30 11:27:54;;;;;;;11.27;3.78;;;;;;;;;;5043722;28;20426;-81
2023/03/30 11:30:21;;;;;;;13.73;3.85;;;;;;;;;;5049129;28;20421;-81
2023/03/30 11:32:54;;;;;;;15.38;4.13;;;;;;;;;;5044548;28;20419;-81
2023/03/30 11:35:26;;;;;;;15.00;3.40;;;;;;;;;;5043020;28;20415;-81
2023/03/30 11:37:57;;;;;;;11.18;3.92;;;;;;;;;;5041042;28;20432;-81
2023/03/30 11:40:26;;;;;;;14.82;4.50;;;;;;;;;;5047236;28;20413;-82
2023/03/30 11:42:52;;;;;;;12.57;3.70;;;;;;;;;;5043567;28;20485;-81
2023/03/30 11:45:24;;;;;;;14.57;3.78;;;;;;;;;;5047349;28;20830;-81
2023/03/30 11:48:00;;;;;;;16.13;4.15;;;;;;;;;;5045427;28;20420;-81
2023/03/30 11:50:37;;;;;;;11.60;3.30;;;;;;;;;;5045363;28;20904;-80
2023/03/30 11:53:11;;;;;;;12.75;3.40;;;;;;;;;;5047410;28;20756;-80
2023/03/30 11:55:51;;;;;;;12.95;3.00;;;;;;;;;;5045582;28;20434;-80
2023/03/30 11:58:22;;;;;;;12.50;3.30;;;;;;;;;;5043840;28;20482;-81
2023/03/30 12:00:55;;;;;;;11.82;3.35;;;;;;;;;;5044497;28;20511;-81
2023/03/30 12:03:28;;;;;;;14.07;3.67;;;;;;;;;;5039465;28;20423;-81
2023/03/30 12:06:00;;;;;;;11.25;3.20;;;;;;;;;;5042941;28;20415;-81
2023/03/30 12:08:35;;;;;;;16.00;3.85;;;;;;;;;;5045157;28;20409;-81
2023/03/30 12:11:06;;;;;;;12.93;3.60;;;;;;;;;;5042716;28;20422;-81
2023/03/30 12:13:32;;;;;;;8.57;3.20;;;;;;;;;;5042571;28;20494;-81
2023/03/30 12:16:01;;;;;;;11.75;2.80;;;;;;;;;;5043446;28;20413;-80
2023/03/30 12:18:31;;;;;;;10.13;2.60;;;;;;;;;;5042588;28;20437;-80
2023/03/30 12:21:05;;;;;;;11.07;3.08;;;;;;;;;;5040039;28;20413;-81
2023/03/30 12:23:36;;;;;;;10.93;3.22;;;;;;;;;;5046028;28;20423;-80
2023/03/30 12:26:08;;;;;;;10.02;3.05;;;;;;;;;;5043618;28;20433;-81
2023/03/30 12:28:43;;;;;;;13.05;3.75;;;;;;;;;;5045637;28;20431;-80
2023/03/30 12:31:10;;;;;;;7.90;2.30;;;;;;;;;;5041641;28;20930;-81
2023/03/30 12:33:44;;;;;;;9.23;3.08;;;;;;;;;;5048403;28;20409;-80
2023/03/30 12:36:25;;;;;;;10.32;2.20;;;;;;;;;;5043759;28;20514;-80
2023/03/30 12:38:56;;;;;;;8.20;2.47;;;;;;;;;;5038558;28;20900;-81
2023/03/30 12:41:25;;;;;;;7.17;2.00;;;;;;;;;;5043196;28;20440;-81
2023/03/30 12:44:03;;;;;;;7.28;2.58;;;;;;;;;;5043107;28;20782;-80
2023/03/30 12:46:34;;;;;;;8.57;2.30;;;;;;;;;;5039715;28;20407;-81
2023/03/30 12:49:04;;;;;;;6.90;1.95;;;;;;;;;;5041099;28;20481;-80
2023/03/30 12:51:45;;;;;;;7.72;2.25;;;;;;;;;;5041905;28;20413;-81
2023/03/30 12:54:28;;;;;;;7.40;2.30;;;;;;;;;;5041966;28;20850;-80
2023/03/30 12:56:57;;;;;;;9.40;2.47;;;;;;;;;;5039954;28;20430;-80
2023/03/30 12:59:53;;;;;;;7.80;2.95;;;;;;;;;;5049748;28;20434;-81
2023/03/30 13:02:30;;;;;;;7.65;2.20;;;;;;;;;;4968170;28;20515;-81
2023/03/30 13:04:57;;;;;;;10.60;2.30;;;;;;;;;;5030687;28;20440;-81
2023/03/30 13:07:24;;;;;;;7.97;2.43;;;;;;;;;;5046499;28;20508;-80
2023/03/30 13:09:53;;;;;;;14.03;2.97;;;;;;;;;;5045877;28;20476;-80
2023/03/30 13:12:38;;;;;;;9.40;2.50;;;;;;;;;;5047102;28;20422;-81
2023/03/30 13:15:19;;;;;;;10.02;2.50;;;;;;;;;;5046651;28;20456;-80
2023/03/30 13:17:57;;;;;;;7.10;2.47;;;;;;;;;;5046961;28;20465;-81
2023/03/30 13:20:28;;;;;;;5.97;2.13;;;;;;;;;;5043734;28;21180;-81
2023/03/30 13:23:13;;;;;;;6.03;2.35;;;;;;;;;;5044100;28;20441;-81
2023/03/30 13:25:44;;;;;;;9.48;2.60;;;;;;;;;;5042641;28;20415;-81
2023/03/30 13:28:37;;;;;;;10.07;2.55;;;;;;;;;;5047242;28;20425;-81
2023/03/30 13:31:09;;;;;;;7.78;3.03;;;;;;;;;;5036102;28;20461;-81
2023/03/30 13:33:37;;;;;;;9.70;2.47;;;;;;;;;;5042910;28;20409;-81
2023/03/30 13:36:08;;;;;;;9.45;2.60;;;;;;;;;;5043856;28;20408;-81
2023/03/30 13:38:42;;;;;;;7.05;2.40;;;;;;;;;;5044404;28;20419;-81
2023/03/30 13:41:20;;;;;;;10.80;2.42;;;;;;;;;;5041140;28;20430;-81
2023/03/30 13:43:52;;;;;;;12.23;2.80;;;;;;;;;;5043432;28;20482;-79
2023/03/30 13:46:24;;;;;;;9.43;2.87;;;;;;;;;;5042493;28;20422;-81
2023/03/30 13:48:56;;;;;;;13.32;2.80;;;;;;;;;;5039091;28;20433;-79
2023/03/30 13:51:24;;;;;;;10.45;2.90;;;;;;;;;;5041746;28;20419;-79
2023/03/30 13:53:52;;;;;;;10.23;2.60;;;;;;;;;;5045979;28;20831;-80
2023/03/30 13:56:21;;;;;;;14.20;3.08;;;;;;;;;;5046144;28;20414;-80
2023/03/30 13:58:49;;;;;;;8.80;2.47;;;;;;;;;;5042374;28;20438;-80
2023/03/30 14:01:21;;;;;;;8.23;2.60;;;;;;;;;;5042053;28;20440;-79
2023/03/30 14:03:48;;;;;;;6.85;2.30;;;;;;;;;;5044820;28;20428;-79
2023/03/30 14:06:16;;;;;;;9.55;2.55;;;;;;;;;;5044699;28;20433;-80
2023/03/30 14:08:45;;;;;;;8.32;2.40;;;;;;;;;;5045094;28;20510;-79
2023/03/30 14:11:14;;;;;;;7.97;2.35;;;;;;;;;;5042471;28;20477;-79
2023/03/30 14:13:41;;;;;;;8.10;2.10;;;;;;;;;;5042237;28;20435;-81
2023/03/30 14:16:09;;;;;;;8.77;2.70;;;;;;;;;;5047310;28;20414;-81
2023/03/30 14:18:36;;;;;;;8.80;2.25;;;;;;;;;;5047983;28;20429;-79
2023/03/30 14:21:03;;;;;;;7.63;2.30;;;;;;;;;;5051896;28;20418;-81
2023/03/30 14:23:35;;;;;;;9.23;2.00;;;;;;;;;;5051342;28;20433;-80
2023/03/30 14:26:03;;;;;;;8.43;2.63;;;;;;;;;;5045655;28;20422;-80
2023/03/30 14:28:33;;;;;;;11.02;2.10;;;;;;;;;;5051552;28;20424;-80
2023/03/30 14:31:04;;;;;;;7.20;2.40;;;;;;;;;;5046923;28;20411;-79
2023/03/30 14:33:31;;;;;;;9.52;2.38;;;;;;;;;;5051645;28;20907;-79
2023/03/30 14:35:58;;;;;;;9.07;2.67;;;;;;;;;;5048239;28;20432;-80
2023/03/30 14:38:26;;;;;;;9.90;2.70;;;;;;;;;;5047583;28;20914;-80
2023/03/30 14:40:54;;;;;;;9.27;2.67;;;;;;;;;;5045365;28;20526;-80
2023/03/30 14:43:23;;;;;;;11.80;2.95;;;;;;;;;;5048277;28;20441;-80